sensor_id;sensor_type;location;lat;lon;timestamp;P1;durP1;ratioP1;P2;durP2;ratioP2
50651;SDS011;61429;52.086;5.240;2022-12-13T06:11:08;31.1;;;21.3;;
50651;SDS011;61429;52.086;5.240;2022-12-13T06:25:45;28.6;;;20.41;;
50651;SDS011;61429;52.086;5.240;2022-12-13T06:27:21;29.0;;;21.1;;
50651;SDS011;61429;52.086;5.240;2022-12-13T06:28:57;29.8;;;20.3;;
50651;SDS011;61429;52.086;5.240;2022-12-13T06:32:11;29.6;;;20.41;;
50651;SDS011;61429;52.086;5.240;2022-12-13T06:33:47;28.8;;;20.7;;
50651;SDS011;61429;52.086;5.240;2022-12-13T06:35:24;28.0;;;19.5;;
50651;SDS011;61429;52.086;5.240;2022-12-13T06:38:40;29.1;;;20.11;;
50651;SDS011;61429;52.086;5.240;2022-12-13T06:40:16;26.5;;;19.3;;
50651;SDS011;61429;52.086;5.240;2022-12-13T06:41:53;27.4;;;19.91;;
50651;SDS011;61429;52.086;5.240;2022-12-13T06:45:06;30.3;;;21.0;;
50651;SDS011;61429;52.086;5.240;2022-12-13T06:46:43;27.8;;;19.91;;
50651;SDS011;61429;52.086;5.240;2022-12-13T06:48:19;27.7;;;19.91;;
50651;SDS011;61429;52.086;5.240;2022-12-13T06:49:55;26.1;;;19.7;;
50651;SDS011;61429;52.086;5.240;2022-12-13T06:53:09;27.2;;;20.0;;
50651;SDS011;61429;52.086;5.240;2022-12-13T06:54:45;27.7;;;19.5;;
50651;SDS011;61429;52.086;5.240;2022-12-13T06:56:21;27.6;;;19.91;;
50651;SDS011;61429;52.086;5.240;2022-12-13T06:59:34;28.6;;;20.11;;
50651;SDS011;61429;52.086;5.240;2022-12-13T07:01:11;30.0;;;20.8;;
50651;SDS011;61429;52.086;5.240;2022-12-13T07:02:51;29.6;;;21.5;;
50651;SDS011;61429;52.086;5.240;2022-12-13T07:06:04;28.6;;;21.4;;
50651;SDS011;61429;52.086;5.240;2022-12-13T07:07:43;29.6;;;21.4;;
50651;SDS011;61429;52.086;5.240;2022-12-13T07:09:20;29.8;;;22.5;;
50651;SDS011;61429;52.086;5.240;2022-12-13T07:10:56;28.6;;;21.0;;
50651;SDS011;61429;52.086;5.240;2022-12-13T07:14:09;28.3;;;21.9;;
50651;SDS011;61429;52.086;5.240;2022-12-13T07:15:46;28.3;;;21.9;;
50651;SDS011;61429;52.086;5.240;2022-12-13T07:17:22;32.9;;;23.1;;
50651;SDS011;61429;52.086;5.240;2022-12-13T07:20:37;30.1;;;21.6;;
50651;SDS011;61429;52.086;5.240;2022-12-13T07:22:14;31.2;;;21.6;;
50651;SDS011;61429;52.086;5.240;2022-12-13T07:23:50;28.5;;;20.8;;
50651;SDS011;61429;52.086;5.240;2022-12-13T07:25:27;31.0;;;22.3;;
50651;SDS011;61429;52.086;5.240;2022-12-13T07:28:39;31.3;;;22.9;;
50651;SDS011;61429;52.086;5.240;2022-12-13T07:30:16;30.5;;;23.0;;
50651;SDS011;61429;52.086;5.240;2022-12-13T07:31:52;31.5;;;23.8;;
50651;SDS011;61429;52.086;5.240;2022-12-13T07:35:06;31.3;;;22.5;;
50651;SDS011;61429;52.086;5.240;2022-12-13T07:36:43;30.3;;;22.2;;
50651;SDS011;61429;52.086;5.240;2022-12-13T07:38:20;30.2;;;21.4;;
50651;SDS011;61429;52.086;5.240;2022-12-13T07:41:34;30.2;;;21.4;;
50651;SDS011;61429;52.086;5.240;2022-12-13T07:43:11;29.4;;;21.9;;
50651;SDS011;61429;52.086;5.240;2022-12-13T07:44:47;32.1;;;21.8;;
50651;SDS011;61429;52.086;5.240;2022-12-13T07:46:23;28.9;;;21.8;;
50651;SDS011;61429;52.086;5.240;2022-12-13T07:49:39;32.6;;;22.9;;
50651;SDS011;61429;52.086;5.240;2022-12-13T07:51:15;31.2;;;22.1;;
50651;SDS011;61429;52.086;5.240;2022-12-13T07:52:52;29.5;;;21.1;;
50651;SDS011;61429;52.086;5.240;2022-12-13T07:56:05;27.8;;;20.41;;
50651;SDS011;61429;52.086;5.240;2022-12-13T07:57:44;28.9;;;20.9;;
50651;SDS011;61429;52.086;5.240;2022-12-13T07:59:21;27.2;;;20.6;;
50651;SDS011;61429;52.086;5.240;2022-12-13T08:02:35;32.3;;;22.0;;
50651;SDS011;61429;52.086;5.240;2022-12-13T08:04:11;32.71;;;21.6;;
50651;SDS011;61429;52.086;5.240;2022-12-13T08:05:47;30.5;;;21.3;;
50651;SDS011;61429;52.086;5.240;2022-12-13T08:07:24;31.9;;;22.0;;
50651;SDS011;61429;52.086;5.240;2022-12-13T08:10:36;32.71;;;22.5;;
50651;SDS011;61429;52.086;5.240;2022-12-13T08:12:13;32.3;;;22.9;;
50651;SDS011;61429;52.086;5.240;2022-12-13T08:13:50;28.4;;;21.3;;
50651;SDS011;61429;52.086;5.240;2022-12-13T08:17:05;29.6;;;19.7;;
50651;SDS011;61429;52.086;5.240;2022-12-13T08:18:43;28.3;;;21.4;;
50651;SDS011;61429;52.086;5.240;2022-12-13T08:20:19;30.6;;;21.9;;
50651;SDS011;61429;52.086;5.240;2022-12-13T08:21:56;31.8;;;22.3;;
50651;SDS011;61429;52.086;5.240;2022-12-13T08:25:10;29.6;;;21.0;;
50651;SDS011;61429;52.086;5.240;2022-12-13T08:26:46;32.6;;;20.41;;
50651;SDS011;61429;52.086;5.240;2022-12-13T08:28:23;29.2;;;20.6;;
50651;SDS011;61429;52.086;5.240;2022-12-13T08:31:36;29.2;;;20.6;;
50651;SDS011;61429;52.086;5.240;2022-12-13T08:33:12;28.2;;;20.0;;
50651;SDS011;61429;52.086;5.240;2022-12-13T08:34:48;28.2;;;20.3;;
50651;SDS011;61429;52.086;5.240;2022-12-13T08:38:01;28.1;;;21.2;;
50651;SDS011;61429;52.086;5.240;2022-12-13T08:39:38;28.7;;;21.5;;
50651;SDS011;61429;52.086;5.240;2022-12-13T08:41:15;29.5;;;21.7;;
50651;SDS011;61429;52.086;5.240;2022-12-13T08:42:53;29.3;;;20.6;;
50651;SDS011;61429;52.086;5.240;2022-12-13T08:46:06;28.8;;;22.2;;
50651;SDS011;61429;52.086;5.240;2022-12-13T08:47:42;28.9;;;21.9;;
50651;SDS011;61429;52.086;5.240;2022-12-13T08:49:18;29.3;;;21.4;;
50651;SDS011;61429;52.086;5.240;2022-12-13T08:52:36;30.2;;;21.9;;
50651;SDS011;61429;52.086;5.240;2022-12-13T08:54:12;31.0;;;22.1;;
50651;SDS011;61429;52.086;5.240;2022-12-13T08:55:48;31.8;;;23.1;;
50651;SDS011;61429;52.086;5.240;2022-12-13T08:59:00;30.3;;;22.2;;
50651;SDS011;61429;52.086;5.240;2022-12-13T09:00:36;28.2;;;21.4;;
50651;SDS011;61429;52.086;5.240;2022-12-13T09:02:13;33.5;;;24.3;;
50651;SDS011;61429;52.086;5.240;2022-12-13T09:03:50;30.5;;;23.0;;
50651;SDS011;61429;52.086;5.240;2022-12-13T09:07:02;33.1;;;23.8;;
50651;SDS011;61429;52.086;5.240;2022-12-13T09:08:39;32.21;;;23.3;;
50651;SDS011;61429;52.086;5.240;2022-12-13T09:10:16;31.2;;;23.1;;
50651;SDS011;61429;52.086;5.240;2022-12-13T09:13:29;31.8;;;23.6;;
50651;SDS011;61429;52.086;5.240;2022-12-13T09:15:08;31.6;;;23.2;;
50651;SDS011;61429;52.086;5.240;2022-12-13T09:16:45;32.3;;;22.8;;
50651;SDS011;61429;52.086;5.240;2022-12-13T09:19:57;32.6;;;23.9;;
50651;SDS011;61429;52.086;5.240;2022-12-13T09:21:33;34.31;;;24.3;;
50651;SDS011;61429;52.086;5.240;2022-12-13T09:23:09;32.1;;;23.9;;
50651;SDS011;61429;52.086;5.240;2022-12-13T09:24:46;34.1;;;25.1;;
50651;SDS011;61429;52.086;5.240;2022-12-13T09:28:00;35.71;;;24.9;;
50651;SDS011;61429;52.086;5.240;2022-12-13T09:29:36;34.21;;;24.1;;
50651;SDS011;61429;52.086;5.240;2022-12-13T09:31:14;38.71;;;26.1;;
50651;SDS011;61429;52.086;5.240;2022-12-13T09:34:31;36.6;;;25.4;;
50651;SDS011;61429;52.086;5.240;2022-12-13T09:36:09;36.4;;;26.2;;
50651;SDS011;61429;52.086;5.240;2022-12-13T09:37:47;38.71;;;27.1;;
50651;SDS011;61429;52.086;5.240;2022-12-13T09:39:23;37.5;;;26.6;;
50651;SDS011;61429;52.086;5.240;2022-12-13T09:42:53;40.21;;;28.0;;
50651;SDS011;61429;52.086;5.240;2022-12-13T09:44:33;37.1;;;26.6;;
50651;SDS011;61429;52.086;5.240;2022-12-13T09:46:16;38.6;;;27.7;;
50651;SDS011;61429;52.086;5.240;2022-12-13T09:48:02;39.1;;;28.3;;
50651;SDS011;61429;52.086;5.240;2022-12-13T09:51:20;37.6;;;27.9;;
50651;SDS011;61429;52.086;5.240;2022-12-13T09:52:57;39.0;;;28.2;;
50651;SDS011;61429;52.086;5.240;2022-12-13T09:54:36;43.4;;;29.8;;
50651;SDS011;61429;52.086;5.240;2022-12-13T09:56:13;38.1;;;27.8;;
50651;SDS011;61429;52.086;5.240;2022-12-13T09:59:31;41.0;;;29.0;;
50651;SDS011;61429;52.086;5.240;2022-12-13T10:01:11;39.4;;;29.8;;
50651;SDS011;61429;52.086;5.240;2022-12-13T10:02:48;39.1;;;28.8;;
50651;SDS011;61429;52.086;5.240;2022-12-13T10:04:26;41.3;;;29.4;;
50651;SDS011;61429;52.086;5.240;2022-12-13T10:07:53;41.3;;;29.5;;
50651;SDS011;61429;52.086;5.240;2022-12-13T10:09:32;41.1;;;29.0;;
50651;SDS011;61429;52.086;5.240;2022-12-13T10:11:10;43.3;;;30.5;;
50651;SDS011;61429;52.086;5.240;2022-12-13T10:12:50;41.6;;;29.8;;
50651;SDS011;61429;52.086;5.240;2022-12-13T10:16:17;41.9;;;29.2;;
50651;SDS011;61429;52.086;5.240;2022-12-13T10:18:12;38.81;;;27.9;;
50651;SDS011;61429;52.086;5.240;2022-12-13T10:19:56;44.7;;;30.1;;
50651;SDS011;61429;52.086;5.240;2022-12-13T10:21:34;42.4;;;30.1;;
50651;SDS011;61429;52.086;5.240;2022-12-13T10:23:15;40.21;;;28.4;;
50651;SDS011;61429;52.086;5.240;2022-12-13T10:26:34;40.71;;;29.3;;
50651;SDS011;61429;52.086;5.240;2022-12-13T10:28:12;41.2;;;29.9;;
50651;SDS011;61429;52.086;5.240;2022-12-13T10:30:00;42.9;;;29.5;;
50651;SDS011;61429;52.086;5.240;2022-12-13T10:31:41;40.5;;;28.4;;
50651;SDS011;61429;52.086;5.240;2022-12-13T10:35:01;37.71;;;28.5;;
50651;SDS011;61429;52.086;5.240;2022-12-13T10:36:55;39.0;;;28.4;;
50651;SDS011;61429;52.086;5.240;2022-12-13T10:38:33;39.81;;;28.6;;
50651;SDS011;61429;52.086;5.240;2022-12-13T10:40:22;36.71;;;27.1;;
50651;SDS011;61429;52.086;5.240;2022-12-13T10:42:08;38.81;;;28.3;;
50651;SDS011;61429;52.086;5.240;2022-12-13T10:45:56;38.9;;;28.0;;
50651;SDS011;61429;52.086;5.240;2022-12-13T10:47:34;37.81;;;26.8;;
50651;SDS011;61429;52.086;5.240;2022-12-13T10:49:14;35.1;;;27.4;;
50651;SDS011;61429;52.086;5.240;2022-12-13T10:50:56;38.4;;;28.5;;
50651;SDS011;61429;52.086;5.240;2022-12-13T10:52:37;38.21;;;27.8;;
50651;SDS011;61429;52.086;5.240;2022-12-13T10:56:08;37.5;;;27.6;;
50651;SDS011;61429;52.086;5.240;2022-12-13T10:57:48;38.4;;;27.4;;
50651;SDS011;61429;52.086;5.240;2022-12-13T10:59:30;37.31;;;27.2;;
50651;SDS011;61429;52.086;5.240;2022-12-13T11:01:10;37.1;;;26.3;;
50651;SDS011;61429;52.086;5.240;2022-12-13T11:04:34;37.6;;;27.5;;
50651;SDS011;61429;52.086;5.240;2022-12-13T11:06:11;36.71;;;27.1;;
50651;SDS011;61429;52.086;5.240;2022-12-13T11:07:49;37.81;;;27.4;;
50651;SDS011;61429;52.086;5.240;2022-12-13T11:09:27;36.6;;;26.6;;
50651;SDS011;61429;52.086;5.240;2022-12-13T11:12:44;36.81;;;26.9;;
50651;SDS011;61429;52.086;5.240;2022-12-13T11:14:22;33.9;;;26.2;;
50651;SDS011;61429;52.086;5.240;2022-12-13T11:16:01;35.21;;;26.9;;
50651;SDS011;61429;52.086;5.240;2022-12-13T11:17:47;34.5;;;25.6;;
50651;SDS011;61429;52.086;5.240;2022-12-13T11:21:13;34.71;;;25.1;;
50651;SDS011;61429;52.086;5.240;2022-12-13T11:23:00;37.5;;;26.0;;
50651;SDS011;61429;52.086;5.240;2022-12-13T11:24:40;32.3;;;24.5;;
50651;SDS011;61429;52.086;5.240;2022-12-13T11:26:17;34.81;;;26.3;;
50651;SDS011;61429;52.086;5.240;2022-12-13T11:29:50;35.0;;;26.6;;
50651;SDS011;61429;52.086;5.240;2022-12-13T11:31:45;33.5;;;25.4;;
50651;SDS011;61429;52.086;5.240;2022-12-13T11:33:32;35.0;;;25.8;;
50651;SDS011;61429;52.086;5.240;2022-12-13T11:35:19;33.6;;;25.6;;
50651;SDS011;61429;52.086;5.240;2022-12-13T11:37:02;36.31;;;26.4;;
50651;SDS011;61429;52.086;5.240;2022-12-13T11:38:55;38.21;;;27.0;;
50651;SDS011;61429;52.086;5.240;2022-12-13T11:40:50;33.71;;;25.3;;
50651;SDS011;61429;52.086;5.240;2022-12-13T11:44:17;31.7;;;24.8;;
50651;SDS011;61429;52.086;5.240;2022-12-13T11:46:01;35.21;;;26.3;;
50651;SDS011;61429;52.086;5.240;2022-12-13T11:47:47;35.1;;;25.6;;
50651;SDS011;61429;52.086;5.240;2022-12-13T11:49:32;32.0;;;24.9;;
50651;SDS011;61429;52.086;5.240;2022-12-13T11:51:16;35.0;;;25.7;;
50651;SDS011;61429;52.086;5.240;2022-12-13T11:54:56;34.9;;;26.2;;
50651;SDS011;61429;52.086;5.240;2022-12-13T11:56:35;36.0;;;26.1;;
50651;SDS011;61429;52.086;5.240;2022-12-13T11:58:18;31.2;;;24.8;;
50651;SDS011;61429;52.086;5.240;2022-12-13T12:00:03;33.9;;;25.3;;
50651;SDS011;61429;52.086;5.240;2022-12-13T12:01:44;33.6;;;26.4;;
50651;SDS011;61429;52.086;5.240;2022-12-13T12:05:16;34.1;;;26.2;;
50651;SDS011;61429;52.086;5.240;2022-12-13T12:07:04;31.9;;;24.6;;
50651;SDS011;61429;52.086;5.240;2022-12-13T12:08:46;36.5;;;27.0;;
50651;SDS011;61429;52.086;5.240;2022-12-13T12:10:35;34.21;;;25.7;;
50651;SDS011;61429;52.086;5.240;2022-12-13T12:12:18;31.5;;;24.5;;
50651;SDS011;61429;52.086;5.240;2022-12-13T12:15:49;36.71;;;25.9;;
50651;SDS011;61429;52.086;5.240;2022-12-13T12:17:41;33.5;;;23.5;;
50651;SDS011;61429;52.086;5.240;2022-12-13T12:19:19;34.4;;;25.4;;
50651;SDS011;61429;52.086;5.240;2022-12-13T12:21:02;33.4;;;24.0;;
50651;SDS011;61429;52.086;5.240;2022-12-13T12:22:53;33.8;;;24.7;;
50651;SDS011;61429;52.086;5.240;2022-12-13T12:24:48;33.0;;;23.9;;
50651;SDS011;61429;52.086;5.240;2022-12-13T12:26:43;33.0;;;23.7;;
50651;SDS011;61429;52.086;5.240;2022-12-13T12:30:35;35.81;;;25.0;;
50651;SDS011;61429;52.086;5.240;2022-12-13T12:32:26;31.8;;;23.2;;
50651;SDS011;61429;52.086;5.240;2022-12-13T12:34:15;34.4;;;24.7;;
50651;SDS011;61429;52.086;5.240;2022-12-13T12:36:07;30.2;;;22.5;;
50651;SDS011;61429;52.086;5.240;2022-12-13T12:38:04;30.2;;;22.5;;
50651;SDS011;61429;52.086;5.240;2022-12-13T12:40:00;31.3;;;23.7;;
50651;SDS011;61429;52.086;5.240;2022-12-13T12:44:11;33.1;;;24.4;;
50651;SDS011;61429;52.086;5.240;2022-12-13T12:46:03;35.5;;;25.2;;
50651;SDS011;61429;52.086;5.240;2022-12-13T12:47:54;32.8;;;24.9;;
50651;SDS011;61429;52.086;5.240;2022-12-13T12:49:49;32.21;;;24.3;;
50651;SDS011;61429;52.086;5.240;2022-12-13T12:52:09;35.0;;;25.3;;
50651;SDS011;61429;52.086;5.240;2022-12-13T12:53:58;34.1;;;25.7;;
50651;SDS011;61429;52.086;5.240;2022-12-13T12:57:48;33.9;;;24.2;;
50651;SDS011;61429;52.086;5.240;2022-12-13T12:59:36;33.0;;;24.6;;
50651;SDS011;61429;52.086;5.240;2022-12-13T13:01:28;32.3;;;23.7;;
50651;SDS011;61429;52.086;5.240;2022-12-13T13:03:19;29.9;;;22.8;;
50651;SDS011;61429;52.086;5.240;2022-12-13T13:05:00;31.8;;;23.0;;
50651;SDS011;61429;52.086;5.240;2022-12-13T13:06:44;32.3;;;24.1;;
50651;SDS011;61429;52.086;5.240;2022-12-13T13:11:49;32.9;;;24.4;;
50651;SDS011;61429;52.086;5.240;2022-12-13T13:13:34;35.6;;;26.0;;
50651;SDS011;61429;52.086;5.240;2022-12-13T13:15:41;34.31;;;25.4;;
50651;SDS011;61429;52.086;5.240;2022-12-13T13:18:47;32.6;;;24.3;;
50651;SDS011;61429;52.086;5.240;2022-12-13T13:20:25;34.1;;;24.8;;
50651;SDS011;61429;52.086;5.240;2022-12-13T13:22:13;35.81;;;24.9;;
50651;SDS011;61429;52.086;5.240;2022-12-13T13:24:04;36.31;;;25.3;;
50651;SDS011;61429;52.086;5.240;2022-12-13T13:25:58;34.31;;;25.7;;
50651;SDS011;61429;52.086;5.240;2022-12-13T13:27:34;35.81;;;26.2;;
50651;SDS011;61429;52.086;5.240;2022-12-13T13:31:13;35.81;;;26.2;;
50651;SDS011;61429;52.086;5.240;2022-12-13T13:32:49;34.6;;;25.6;;
50651;SDS011;61429;52.086;5.240;2022-12-13T13:34:28;38.1;;;27.7;;
50651;SDS011;61429;52.086;5.240;2022-12-13T13:36:06;36.5;;;26.7;;
50651;SDS011;61429;52.086;5.240;2022-12-13T13:39:55;37.5;;;26.0;;
50651;SDS011;61429;52.086;5.240;2022-12-13T13:41:38;38.6;;;26.7;;
50651;SDS011;61429;52.086;5.240;2022-12-13T13:43:30;36.81;;;26.2;;
50651;SDS011;61429;52.086;5.240;2022-12-13T13:47:14;39.81;;;28.3;;
50651;SDS011;61429;52.086;5.240;2022-12-13T13:49:05;39.6;;;27.5;;
50651;SDS011;61429;52.086;5.240;2022-12-13T13:51:23;35.9;;;26.4;;
50651;SDS011;61429;52.086;5.240;2022-12-13T13:54:07;36.31;;;27.4;;
50651;SDS011;61429;52.086;5.240;2022-12-13T13:57:21;36.21;;;26.9;;
50651;SDS011;61429;52.086;5.240;2022-12-13T14:01:53;38.5;;;27.9;;
50651;SDS011;61429;52.086;5.240;2022-12-13T14:04:33;38.6;;;27.7;;
50651;SDS011;61429;52.086;5.240;2022-12-13T14:08:01;39.6;;;27.0;;
50651;SDS011;61429;52.086;5.240;2022-12-13T14:10:22;39.4;;;28.1;;
50651;SDS011;61429;52.086;5.240;2022-12-13T14:16:16;37.31;;;27.5;;
50651;SDS011;61429;52.086;5.240;2022-12-13T14:19:49;39.21;;;26.5;;
50651;SDS011;61429;52.086;5.240;2022-12-13T14:22:39;36.4;;;27.1;;
50651;SDS011;61429;52.086;5.240;2022-12-13T14:26:37;37.6;;;26.7;;
50651;SDS011;61429;52.086;5.240;2022-12-13T14:28:37;37.0;;;26.8;;
50651;SDS011;61429;52.086;5.240;2022-12-13T14:30:24;36.81;;;27.8;;
50651;SDS011;61429;52.086;5.240;2022-12-13T14:33:45;37.1;;;27.1;;
50651;SDS011;61429;52.086;5.240;2022-12-13T14:35:22;38.1;;;27.6;;
50651;SDS011;61429;52.086;5.240;2022-12-13T14:37:02;37.9;;;27.7;;
50651;SDS011;61429;52.086;5.240;2022-12-13T14:38:40;37.4;;;27.1;;
50651;SDS011;61429;52.086;5.240;2022-12-13T14:42:13;40.6;;;28.2;;
50651;SDS011;61429;52.086;5.240;2022-12-13T14:44:12;37.6;;;27.7;;
50651;SDS011;61429;52.086;5.240;2022-12-13T14:45:51;39.1;;;28.6;;
50651;SDS011;61429;52.086;5.240;2022-12-13T14:47:29;41.8;;;29.0;;
50651;SDS011;61429;52.086;5.240;2022-12-13T14:49:09;38.21;;;27.7;;
50651;SDS011;61429;52.086;5.240;2022-12-13T14:52:25;37.0;;;27.5;;
50651;SDS011;61429;52.086;5.240;2022-12-13T14:54:15;39.81;;;28.5;;
50651;SDS011;61429;52.086;5.240;2022-12-13T14:56:04;41.9;;;29.5;;
50651;SDS011;61429;52.086;5.240;2022-12-13T14:57:49;37.21;;;27.6;;
50651;SDS011;61429;52.086;5.240;2022-12-13T14:59:27;39.0;;;28.6;;
50651;SDS011;61429;52.086;5.240;2022-12-13T15:02:59;37.1;;;27.8;;
50651;SDS011;61429;52.086;5.240;2022-12-13T15:04:38;39.6;;;28.0;;
50651;SDS011;61429;52.086;5.240;2022-12-13T15:06:15;39.9;;;28.3;;
50651;SDS011;61429;52.086;5.240;2022-12-13T15:07:55;39.5;;;28.0;;
50651;SDS011;61429;52.086;5.240;2022-12-13T15:11:12;41.8;;;29.1;;
50651;SDS011;61429;52.086;5.240;2022-12-13T15:12:51;42.5;;;30.0;;
50651;SDS011;61429;52.086;5.240;2022-12-13T15:14:29;43.1;;;28.8;;
50651;SDS011;61429;52.086;5.240;2022-12-13T15:16:18;40.71;;;29.2;;
50651;SDS011;61429;52.086;5.240;2022-12-13T15:21:29;42.8;;;29.9;;
50651;SDS011;61429;52.086;5.240;2022-12-13T15:23:06;44.6;;;29.5;;
50651;SDS011;61429;52.086;5.240;2022-12-13T15:24:59;41.1;;;29.0;;
50651;SDS011;61429;52.086;5.240;2022-12-13T15:26:36;40.5;;;29.4;;
50651;SDS011;61429;52.086;5.240;2022-12-13T15:29:51;38.9;;;27.7;;
50651;SDS011;61429;52.086;5.240;2022-12-13T15:31:29;40.21;;;28.5;;
50651;SDS011;61429;52.086;5.240;2022-12-13T15:33:15;40.0;;;28.7;;
50651;SDS011;61429;52.086;5.240;2022-12-13T15:36:30;42.0;;;29.2;;
50651;SDS011;61429;52.086;5.240;2022-12-13T15:38:08;40.71;;;28.5;;
50651;SDS011;61429;52.086;5.240;2022-12-13T15:39:49;38.4;;;28.3;;
50651;SDS011;61429;52.086;5.240;2022-12-13T15:41:31;39.31;;;28.8;;
50651;SDS011;61429;52.086;5.240;2022-12-13T15:44:53;40.4;;;28.8;;
50651;SDS011;61429;52.086;5.240;2022-12-13T15:46:35;41.2;;;28.8;;
50651;SDS011;61429;52.086;5.240;2022-12-13T15:48:20;39.81;;;28.5;;
50651;SDS011;61429;52.086;5.240;2022-12-13T15:50:03;40.1;;;28.0;;
50651;SDS011;61429;52.086;5.240;2022-12-13T15:51:52;41.0;;;28.0;;
50651;SDS011;61429;52.086;5.240;2022-12-13T15:55:25;43.6;;;29.2;;
50651;SDS011;61429;52.086;5.240;2022-12-13T15:57:11;41.2;;;29.0;;
50651;SDS011;61429;52.086;5.240;2022-12-13T15:58:51;42.4;;;29.0;;
50651;SDS011;61429;52.086;5.240;2022-12-13T16:00:29;40.21;;;27.7;;
50651;SDS011;61429;52.086;5.240;2022-12-13T16:02:11;42.5;;;28.9;;
50651;SDS011;61429;52.086;5.240;2022-12-13T16:05:28;42.3;;;29.8;;
50651;SDS011;61429;52.086;5.240;2022-12-13T16:07:15;39.9;;;29.1;;
50651;SDS011;61429;52.086;5.240;2022-12-13T16:08:58;42.8;;;29.1;;
50651;SDS011;61429;52.086;5.240;2022-12-13T16:10:37;39.31;;;28.6;;
50651;SDS011;61429;52.086;5.240;2022-12-13T16:14:35;41.6;;;29.7;;
50651;SDS011;61429;52.086;5.240;2022-12-13T16:16:47;39.0;;;27.9;;
50651;SDS011;61429;52.086;5.240;2022-12-13T16:20:09;38.9;;;28.2;;
50651;SDS011;61429;52.086;5.240;2022-12-13T16:21:49;39.81;;;27.4;;
50651;SDS011;61429;52.086;5.240;2022-12-13T16:23:26;37.81;;;28.4;;
50651;SDS011;61429;52.086;5.240;2022-12-13T16:26:42;42.3;;;28.9;;
50651;SDS011;61429;52.086;5.240;2022-12-13T16:28:20;39.81;;;28.8;;
50651;SDS011;61429;52.086;5.240;2022-12-13T16:29:57;40.5;;;27.6;;
50651;SDS011;61429;52.086;5.240;2022-12-13T16:31:34;39.9;;;28.4;;
50651;SDS011;61429;52.086;5.240;2022-12-13T16:34:47;40.4;;;27.7;;
50651;SDS011;61429;52.086;5.240;2022-12-13T16:36:23;38.4;;;27.1;;
50651;SDS011;61429;52.086;5.240;2022-12-13T16:37:59;38.0;;;27.6;;
50651;SDS011;61429;52.086;5.240;2022-12-13T16:41:13;38.1;;;28.3;;
50651;SDS011;61429;52.086;5.240;2022-12-13T16:42:50;40.5;;;28.6;;
50651;SDS011;61429;52.086;5.240;2022-12-13T16:44:30;37.5;;;26.3;;
50651;SDS011;61429;52.086;5.240;2022-12-13T16:46:09;38.4;;;26.6;;
50651;SDS011;61429;52.086;5.240;2022-12-13T16:49:24;38.21;;;27.1;;
50651;SDS011;61429;52.086;5.240;2022-12-13T16:51:05;38.0;;;27.7;;
50651;SDS011;61429;52.086;5.240;2022-12-13T16:52:42;36.6;;;26.9;;
50651;SDS011;61429;52.086;5.240;2022-12-13T16:55:57;37.9;;;27.4;;
50651;SDS011;61429;52.086;5.240;2022-12-13T16:57:33;37.71;;;27.0;;
50651;SDS011;61429;52.086;5.240;2022-12-13T16:59:11;38.9;;;27.5;;
50651;SDS011;61429;52.086;5.240;2022-12-13T17:00:49;39.1;;;27.7;;
50651;SDS011;61429;52.086;5.240;2022-12-13T17:04:01;40.81;;;28.1;;
50651;SDS011;61429;52.086;5.240;2022-12-13T17:07:16;40.1;;;27.5;;
50651;SDS011;61429;52.086;5.240;2022-12-13T17:10:29;38.6;;;26.8;;
50651;SDS011;61429;52.086;5.240;2022-12-13T17:12:06;38.0;;;27.0;;
50651;SDS011;61429;52.086;5.240;2022-12-13T17:13:45;36.1;;;26.3;;
50651;SDS011;61429;52.086;5.240;2022-12-13T17:15:22;37.5;;;26.0;;
50651;SDS011;61429;52.086;5.240;2022-12-13T17:18:34;36.4;;;26.1;;
50651;SDS011;61429;52.086;5.240;2022-12-13T17:20:12;38.9;;;27.4;;
50651;SDS011;61429;52.086;5.240;2022-12-13T17:21:51;38.0;;;26.3;;
50651;SDS011;61429;52.086;5.240;2022-12-13T17:25:04;37.6;;;25.7;;
50651;SDS011;61429;52.086;5.240;2022-12-13T17:28:19;36.9;;;26.6;;
50651;SDS011;61429;52.086;5.240;2022-12-13T17:31:32;41.5;;;27.6;;
50651;SDS011;61429;52.086;5.240;2022-12-13T17:33:12;37.9;;;26.7;;
50651;SDS011;61429;52.086;5.240;2022-12-13T17:34:48;36.21;;;26.6;;
50651;SDS011;61429;52.086;5.240;2022-12-13T17:36:26;38.4;;;26.7;;
50651;SDS011;61429;52.086;5.240;2022-12-13T17:39:38;38.71;;;26.8;;
50651;SDS011;61429;52.086;5.240;2022-12-13T17:41:14;39.31;;;26.9;;
50651;SDS011;61429;52.086;5.240;2022-12-13T17:42:52;36.9;;;26.1;;
50651;SDS011;61429;52.086;5.240;2022-12-13T17:46:05;37.1;;;25.3;;
50651;SDS011;61429;52.086;5.240;2022-12-13T17:47:45;39.21;;;26.5;;
50651;SDS011;61429;52.086;5.240;2022-12-13T17:49:21;36.71;;;25.9;;
50651;SDS011;61429;52.086;5.240;2022-12-13T17:50:59;38.9;;;26.8;;
50651;SDS011;61429;52.086;5.240;2022-12-13T17:54:13;37.21;;;25.9;;
50651;SDS011;61429;52.086;5.240;2022-12-13T17:55:53;38.31;;;26.0;;
50651;SDS011;61429;52.086;5.240;2022-12-13T17:57:31;37.0;;;26.4;;
50651;SDS011;61429;52.086;5.240;2022-12-13T18:00:47;39.21;;;27.3;;
50651;SDS011;61429;52.086;5.240;2022-12-13T18:02:23;37.21;;;26.8;;
50651;SDS011;61429;52.086;5.240;2022-12-13T18:03:59;39.4;;;27.4;;
50651;SDS011;61429;52.086;5.240;2022-12-13T18:05:36;40.21;;;27.6;;
50651;SDS011;61429;52.086;5.240;2022-12-13T18:08:48;38.71;;;26.7;;
50651;SDS011;61429;52.086;5.240;2022-12-13T18:12:00;39.5;;;27.1;;
50651;SDS011;61429;52.086;5.240;2022-12-13T18:15:13;40.4;;;27.7;;
50651;SDS011;61429;52.086;5.240;2022-12-13T18:16:49;38.81;;;27.4;;
50651;SDS011;61429;52.086;5.240;2022-12-13T18:18:25;39.31;;;27.4;;
50651;SDS011;61429;52.086;5.240;2022-12-13T18:21:38;41.5;;;28.4;;
50651;SDS011;61429;52.086;5.240;2022-12-13T18:23:15;41.9;;;27.7;;
50651;SDS011;61429;52.086;5.240;2022-12-13T18:24:51;39.81;;;27.1;;
50651;SDS011;61429;52.086;5.240;2022-12-13T18:28:06;40.21;;;27.3;;
50651;SDS011;61429;52.086;5.240;2022-12-13T18:29:43;41.8;;;28.6;;
50651;SDS011;61429;52.086;5.240;2022-12-13T18:31:20;37.81;;;26.1;;
50651;SDS011;61429;52.086;5.240;2022-12-13T18:32:59;39.6;;;26.7;;
50651;SDS011;61429;52.086;5.240;2022-12-13T18:36:11;40.6;;;27.3;;
50651;SDS011;61429;52.086;5.240;2022-12-13T18:37:49;39.81;;;26.7;;
50651;SDS011;61429;52.086;5.240;2022-12-13T18:39:27;41.5;;;27.1;;
50651;SDS011;61429;52.086;5.240;2022-12-13T18:42:41;41.5;;;28.1;;
50651;SDS011;61429;52.086;5.240;2022-12-13T18:44:17;39.6;;;27.2;;
50651;SDS011;61429;52.086;5.240;2022-12-13T18:45:54;41.0;;;27.3;;
50651;SDS011;61429;52.086;5.240;2022-12-13T18:47:30;39.6;;;27.2;;
50651;SDS011;61429;52.086;5.240;2022-12-13T18:50:44;42.3;;;28.1;;
50651;SDS011;61429;52.086;5.240;2022-12-13T18:52:22;43.4;;;28.9;;
50651;SDS011;61429;52.086;5.240;2022-12-13T18:53:59;41.2;;;28.0;;
50651;SDS011;61429;52.086;5.240;2022-12-13T18:57:11;40.4;;;27.9;;
50651;SDS011;61429;52.086;5.240;2022-12-13T18:58:49;41.5;;;25.8;;
50651;SDS011;61429;52.086;5.240;2022-12-13T19:00:26;37.9;;;27.2;;
50651;SDS011;61429;52.086;5.240;2022-12-13T19:02:03;40.9;;;26.7;;
50651;SDS011;61429;52.086;5.240;2022-12-13T19:05:17;39.9;;;27.8;;
50651;SDS011;61429;52.086;5.240;2022-12-13T19:06:55;39.4;;;27.1;;
50651;SDS011;61429;52.086;5.240;2022-12-13T19:08:32;39.0;;;26.3;;
50651;SDS011;61429;52.086;5.240;2022-12-13T19:11:45;38.4;;;26.4;;
50651;SDS011;61429;52.086;5.240;2022-12-13T19:13:23;40.6;;;27.0;;
50651;SDS011;61429;52.086;5.240;2022-12-13T19:15:01;41.1;;;26.6;;
50651;SDS011;61429;52.086;5.240;2022-12-13T19:18:14;39.81;;;26.0;;
50651;SDS011;61429;52.086;5.240;2022-12-13T19:19:50;39.5;;;26.6;;
50651;SDS011;61429;52.086;5.240;2022-12-13T19:21:28;40.31;;;26.5;;
50651;SDS011;61429;52.086;5.240;2022-12-13T19:23:04;37.5;;;26.4;;
50651;SDS011;61429;52.086;5.240;2022-12-13T19:26:18;39.0;;;26.2;;